sensor_id;sensor_type;location;lat;lon;timestamp;P1;durP1;ratioP1;P2;durP2;ratioP2
20497;SDS011;10407;53.238;10.448;2023-08-24T00:00:25;124.07;;;27.70;;
20497;SDS011;10407;53.238;10.448;2023-08-24T00:02:53;122.57;;;25.13;;
20497;SDS011;10407;53.238;10.448;2023-08-24T00:05:20;123.27;;;22.33;;
20497;SDS011;10407;53.238;10.448;2023-08-24T00:07:48;121.83;;;22.87;;
20497;SDS011;10407;53.238;10.448;2023-08-24T00:10:17;119.70;;;23.23;;
20497;SDS011;10407;53.238;10.448;2023-08-24T00:12:44;126.13;;;23.33;;
20497;SDS011;10407;53.238;10.448;2023-08-24T00:15:12;119.90;;;21.97;;
20497;SDS011;10407;53.238;10.448;2023-08-24T00:17:40;119.97;;;23.77;;
20497;SDS011;10407;53.238;10.448;2023-08-24T00:20:07;121.60;;;25.83;;
20497;SDS011;10407;53.238;10.448;2023-08-24T00:22:37;119.07;;;22.27;;
20497;SDS011;10407;53.238;10.448;2023-08-24T00:25:06;120.07;;;22.87;;
20497;SDS011;10407;53.238;10.448;2023-08-24T00:27:34;122.63;;;24.87;;
20497;SDS011;10407;53.238;10.448;2023-08-24T00:30:02;118.43;;;21.50;;
20497;SDS011;10407;53.238;10.448;2023-08-24T00:32:32;121.70;;;23.77;;
20497;SDS011;10407;53.238;10.448;2023-08-24T00:35:01;122.70;;;24.10;;
20497;SDS011;10407;53.238;10.448;2023-08-24T00:37:30;123.50;;;26.10;;
20497;SDS011;10407;53.238;10.448;2023-08-24T00:40:03;119.60;;;20.70;;
20497;SDS011;10407;53.238;10.448;2023-08-24T00:42:29;120.70;;;22.73;;
20497;SDS011;10407;53.238;10.448;2023-08-24T00:44:57;120.23;;;23.07;;
20497;SDS011;10407;53.238;10.448;2023-08-24T00:47:25;121.83;;;22.10;;
20497;SDS011;10407;53.238;10.448;2023-08-24T00:53:15;123.00;;;24.93;;
20497;SDS011;10407;53.238;10.448;2023-08-24T00:55:44;122.83;;;24.27;;
20497;SDS011;10407;53.238;10.448;2023-08-24T00:58:12;118.80;;;22.47;;
20497;SDS011;10407;53.238;10.448;2023-08-24T01:00:40;120.87;;;22.87;;
20497;SDS011;10407;53.238;10.448;2023-08-24T01:03:08;122.07;;;23.67;;
20497;SDS011;10407;53.238;10.448;2023-08-24T01:05:36;121.37;;;21.30;;
20497;SDS011;10407;53.238;10.448;2023-08-24T01:08:03;118.67;;;21.00;;
20497;SDS011;10407;53.238;10.448;2023-08-24T01:11:16;124.63;;;24.63;;
20497;SDS011;10407;53.238;10.448;2023-08-24T01:13:20;119.47;;;22.23;;
20497;SDS011;10407;53.238;10.448;2023-08-24T01:16:11;123.00;;;25.67;;
20497;SDS011;10407;53.238;10.448;2023-08-24T01:18:27;119.87;;;22.60;;
20497;SDS011;10407;53.238;10.448;2023-08-24T01:20:56;119.37;;;23.27;;
20497;SDS011;10407;53.238;10.448;2023-08-24T01:26:08;119.27;;;21.23;;
20497;SDS011;10407;53.238;10.448;2023-08-24T01:28:46;120.17;;;23.10;;
20497;SDS011;10407;53.238;10.448;2023-08-24T01:31:14;118.27;;;21.23;;
20497;SDS011;10407;53.238;10.448;2023-08-24T01:33:43;126.13;;;26.43;;
20497;SDS011;10407;53.238;10.448;2023-08-24T01:36:12;128.73;;;24.50;;
20497;SDS011;10407;53.238;10.448;2023-08-24T01:38:46;121.20;;;23.20;;
20497;SDS011;10407;53.238;10.448;2023-08-24T01:41:17;121.47;;;23.30;;
20497;SDS011;10407;53.238;10.448;2023-08-24T01:43:51;120.57;;;24.80;;
20497;SDS011;10407;53.238;10.448;2023-08-24T01:46:22;121.93;;;26.83;;
20497;SDS011;10407;53.238;10.448;2023-08-24T01:48:52;119.53;;;21.43;;
20497;SDS011;10407;53.238;10.448;2023-08-24T01:51:21;121.03;;;23.93;;
20497;SDS011;10407;53.238;10.448;2023-08-24T01:53:50;126.77;;;23.60;;
20497;SDS011;10407;53.238;10.448;2023-08-24T01:56:19;122.47;;;25.07;;
20497;SDS011;10407;53.238;10.448;2023-08-24T01:58:47;120.17;;;22.17;;
20497;SDS011;10407;53.238;10.448;2023-08-24T02:01:14;119.30;;;21.73;;
20497;SDS011;10407;53.238;10.448;2023-08-24T02:03:42;119.00;;;23.20;;
20497;SDS011;10407;53.238;10.448;2023-08-24T02:06:09;126.47;;;23.83;;
20497;SDS011;10407;53.238;10.448;2023-08-24T02:08:37;119.37;;;21.50;;
20497;SDS011;10407;53.238;10.448;2023-08-24T02:11:05;122.60;;;24.03;;
20497;SDS011;10407;53.238;10.448;2023-08-24T02:13:33;119.87;;;21.80;;
20497;SDS011;10407;53.238;10.448;2023-08-24T02:16:02;121.83;;;25.20;;
20497;SDS011;10407;53.238;10.448;2023-08-24T02:18:30;119.43;;;22.10;;
20497;SDS011;10407;53.238;10.448;2023-08-24T02:20:58;120.03;;;21.13;;
20497;SDS011;10407;53.238;10.448;2023-08-24T02:23:25;122.57;;;24.47;;
20497;SDS011;10407;53.238;10.448;2023-08-24T02:25:53;120.23;;;24.17;;
20497;SDS011;10407;53.238;10.448;2023-08-24T02:28:22;131.53;;;26.13;;
20497;SDS011;10407;53.238;10.448;2023-08-24T02:30:50;124.50;;;26.10;;
20497;SDS011;10407;53.238;10.448;2023-08-24T02:33:17;125.57;;;26.90;;
20497;SDS011;10407;53.238;10.448;2023-08-24T02:35:47;121.63;;;25.07;;
20497;SDS011;10407;53.238;10.448;2023-08-24T02:38:14;122.50;;;25.67;;
20497;SDS011;10407;53.238;10.448;2023-08-24T02:40:42;122.70;;;27.07;;
20497;SDS011;10407;53.238;10.448;2023-08-24T02:43:09;121.13;;;25.00;;
20497;SDS011;10407;53.238;10.448;2023-08-24T02:45:38;121.90;;;26.10;;
20497;SDS011;10407;53.238;10.448;2023-08-24T02:48:05;136.50;;;28.80;;
20497;SDS011;10407;53.238;10.448;2023-08-24T02:50:33;130.97;;;23.83;;
20497;SDS011;10407;53.238;10.448;2023-08-24T02:53:00;126.57;;;30.93;;
20497;SDS011;10407;53.238;10.448;2023-08-24T02:55:31;120.10;;;22.80;;
20497;SDS011;10407;53.238;10.448;2023-08-24T02:57:58;123.80;;;25.13;;
20497;SDS011;10407;53.238;10.448;2023-08-24T03:03:48;121.10;;;23.70;;
20497;SDS011;10407;53.238;10.448;2023-08-24T03:06:15;120.80;;;25.10;;
20497;SDS011;10407;53.238;10.448;2023-08-24T03:08:43;120.77;;;24.00;;
20497;SDS011;10407;53.238;10.448;2023-08-24T03:11:11;124.00;;;28.53;;
20497;SDS011;10407;53.238;10.448;2023-08-24T03:13:39;119.83;;;25.73;;
20497;SDS011;10407;53.238;10.448;2023-08-24T03:16:08;123.60;;;27.13;;
20497;SDS011;10407;53.238;10.448;2023-08-24T03:18:36;124.70;;;29.60;;
20497;SDS011;10407;53.238;10.448;2023-08-24T03:21:03;124.40;;;27.80;;
20497;SDS011;10407;53.238;10.448;2023-08-24T03:23:32;122.73;;;26.70;;
20497;SDS011;10407;53.238;10.448;2023-08-24T03:25:59;121.43;;;26.50;;
20497;SDS011;10407;53.238;10.448;2023-08-24T03:28:27;124.17;;;24.93;;
20497;SDS011;10407;53.238;10.448;2023-08-24T03:30:54;121.80;;;25.37;;
20497;SDS011;10407;53.238;10.448;2023-08-24T03:33:22;121.97;;;26.90;;
20497;SDS011;10407;53.238;10.448;2023-08-24T03:35:50;127.57;;;31.03;;
20497;SDS011;10407;53.238;10.448;2023-08-24T03:38:18;126.37;;;26.00;;
20497;SDS011;10407;53.238;10.448;2023-08-24T03:40:45;119.93;;;25.07;;
20497;SDS011;10407;53.238;10.448;2023-08-24T03:43:13;125.60;;;28.60;;
20497;SDS011;10407;53.238;10.448;2023-08-24T03:45:41;125.90;;;25.40;;
20497;SDS011;10407;53.238;10.448;2023-08-24T03:48:09;123.33;;;28.33;;
20497;SDS011;10407;53.238;10.448;2023-08-24T03:50:37;120.90;;;25.00;;
20497;SDS011;10407;53.238;10.448;2023-08-24T03:53:05;120.40;;;26.23;;
20497;SDS011;10407;53.238;10.448;2023-08-24T03:58:55;121.53;;;24.57;;
20497;SDS011;10407;53.238;10.448;2023-08-24T04:01:23;122.10;;;22.40;;
20497;SDS011;10407;53.238;10.448;2023-08-24T04:03:50;123.90;;;22.30;;
20497;SDS011;10407;53.238;10.448;2023-08-24T04:06:18;123.17;;;24.33;;
20497;SDS011;10407;53.238;10.448;2023-08-24T04:08:48;126.03;;;24.70;;
20497;SDS011;10407;53.238;10.448;2023-08-24T04:11:15;120.80;;;26.23;;
20497;SDS011;10407;53.238;10.448;2023-08-24T04:13:43;124.70;;;24.10;;
20497;SDS011;10407;53.238;10.448;2023-08-24T04:16:10;120.17;;;23.43;;
20497;SDS011;10407;53.238;10.448;2023-08-24T04:18:38;120.90;;;25.67;;
20497;SDS011;10407;53.238;10.448;2023-08-24T04:21:06;119.20;;;24.57;;
20497;SDS011;10407;53.238;10.448;2023-08-24T04:23:34;126.10;;;26.13;;
20497;SDS011;10407;53.238;10.448;2023-08-24T04:26:01;120.77;;;23.00;;
20497;SDS011;10407;53.238;10.448;2023-08-24T04:28:30;120.47;;;25.63;;
20497;SDS011;10407;53.238;10.448;2023-08-24T04:30:58;127.63;;;25.00;;
20497;SDS011;10407;53.238;10.448;2023-08-24T04:33:26;121.00;;;23.90;;
20497;SDS011;10407;53.238;10.448;2023-08-24T04:35:53;123.97;;;22.67;;
20497;SDS011;10407;53.238;10.448;2023-08-24T04:38:21;120.60;;;22.37;;
20497;SDS011;10407;53.238;10.448;2023-08-24T04:40:49;121.47;;;23.00;;
20497;SDS011;10407;53.238;10.448;2023-08-24T04:43:19;119.00;;;23.17;;
20497;SDS011;10407;53.238;10.448;2023-08-24T04:45:48;121.87;;;25.40;;
20497;SDS011;10407;53.238;10.448;2023-08-24T04:48:20;120.60;;;22.63;;
20497;SDS011;10407;53.238;10.448;2023-08-24T04:50:49;123.63;;;25.70;;
20497;SDS011;10407;53.238;10.448;2023-08-24T04:53:18;119.97;;;23.50;;
20497;SDS011;10407;53.238;10.448;2023-08-24T04:55:46;120.47;;;25.17;;
20497;SDS011;10407;53.238;10.448;2023-08-24T04:58:14;123.97;;;23.97;;
20497;SDS011;10407;53.238;10.448;2023-08-24T05:00:41;126.17;;;22.70;;
20497;SDS011;10407;53.238;10.448;2023-08-24T05:03:09;122.00;;;24.20;;
20497;SDS011;10407;53.238;10.448;2023-08-24T05:05:37;120.00;;;23.80;;
20497;SDS011;10407;53.238;10.448;2023-08-24T05:08:05;122.37;;;23.50;;
20497;SDS011;10407;53.238;10.448;2023-08-24T05:10:35;120.17;;;22.57;;
20497;SDS011;10407;53.238;10.448;2023-08-24T05:13:02;120.63;;;21.57;;
20497;SDS011;10407;53.238;10.448;2023-08-24T05:15:30;120.40;;;23.37;;
20497;SDS011;10407;53.238;10.448;2023-08-24T05:17:58;140.23;;;22.20;;
20497;SDS011;10407;53.238;10.448;2023-08-24T05:20:25;124.70;;;24.23;;
20497;SDS011;10407;53.238;10.448;2023-08-24T05:22:53;125.40;;;22.10;;
20497;SDS011;10407;53.238;10.448;2023-08-24T05:25:21;121.87;;;22.93;;
20497;SDS011;10407;53.238;10.448;2023-08-24T05:27:49;120.43;;;22.77;;
20497;SDS011;10407;53.238;10.448;2023-08-24T05:30:17;121.80;;;24.63;;
20497;SDS011;10407;53.238;10.448;2023-08-24T05:32:45;118.80;;;21.83;;
20497;SDS011;10407;53.238;10.448;2023-08-24T05:35:12;124.53;;;21.97;;
20497;SDS011;10407;53.238;10.448;2023-08-24T05:37:40;119.83;;;22.53;;
20497;SDS011;10407;53.238;10.448;2023-08-24T05:40:08;119.17;;;21.07;;
20497;SDS011;10407;53.238;10.448;2023-08-24T05:42:36;130.87;;;22.47;;
20497;SDS011;10407;53.238;10.448;2023-08-24T05:45:03;126.00;;;21.73;;
20497;SDS011;10407;53.238;10.448;2023-08-24T05:47:31;120.33;;;23.13;;
20497;SDS011;10407;53.238;10.448;2023-08-24T05:53:21;119.47;;;22.67;;
20497;SDS011;10407;53.238;10.448;2023-08-24T05:55:49;120.07;;;22.97;;
20497;SDS011;10407;53.238;10.448;2023-08-24T05:58:16;123.70;;;22.07;;
20497;SDS011;10407;53.238;10.448;2023-08-24T06:00:44;123.13;;;21.70;;
20497;SDS011;10407;53.238;10.448;2023-08-24T06:03:11;120.70;;;20.07;;
20497;SDS011;10407;53.238;10.448;2023-08-24T06:05:39;120.43;;;22.50;;
20497;SDS011;10407;53.238;10.448;2023-08-24T06:08:06;125.57;;;24.03;;
20497;SDS011;10407;53.238;10.448;2023-08-24T06:10:34;120.77;;;21.23;;
20497;SDS011;10407;53.238;10.448;2023-08-24T06:13:01;120.23;;;23.10;;
20497;SDS011;10407;53.238;10.448;2023-08-24T06:15:29;122.53;;;22.77;;
20497;SDS011;10407;53.238;10.448;2023-08-24T06:17:56;122.87;;;21.77;;
20497;SDS011;10407;53.238;10.448;2023-08-24T06:20:25;119.33;;;22.73;;
20497;SDS011;10407;53.238;10.448;2023-08-24T06:22:54;121.73;;;20.30;;
20497;SDS011;10407;53.238;10.448;2023-08-24T06:25:21;125.27;;;24.37;;
20497;SDS011;10407;53.238;10.448;2023-08-24T06:27:49;121.70;;;23.67;;
20497;SDS011;10407;53.238;10.448;2023-08-24T06:30:16;122.67;;;22.57;;
20497;SDS011;10407;53.238;10.448;2023-08-24T06:32:44;118.60;;;22.63;;
20497;SDS011;10407;53.238;10.448;2023-08-24T06:35:12;127.90;;;29.60;;
20497;SDS011;10407;53.238;10.448;2023-08-24T06:37:40;120.37;;;23.67;;
20497;SDS011;10407;53.238;10.448;2023-08-24T06:40:08;121.10;;;22.87;;
20497;SDS011;10407;53.238;10.448;2023-08-24T06:42:36;122.97;;;22.80;;
20497;SDS011;10407;53.238;10.448;2023-08-24T06:45:04;124.90;;;22.77;;
20497;SDS011;10407;53.238;10.448;2023-08-24T06:47:32;119.97;;;23.27;;
20497;SDS011;10407;53.238;10.448;2023-08-24T06:50:00;119.50;;;21.77;;
20497;SDS011;10407;53.238;10.448;2023-08-24T06:52:27;121.27;;;24.50;;
20497;SDS011;10407;53.238;10.448;2023-08-24T06:54:55;118.97;;;22.20;;
20497;SDS011;10407;53.238;10.448;2023-08-24T06:57:22;121.67;;;22.43;;
20497;SDS011;10407;53.238;10.448;2023-08-24T06:59:50;119.53;;;22.43;;
20497;SDS011;10407;53.238;10.448;2023-08-24T07:02:18;121.70;;;22.37;;
20497;SDS011;10407;53.238;10.448;2023-08-24T07:04:46;123.53;;;21.30;;
20497;SDS011;10407;53.238;10.448;2023-08-24T07:07:13;119.90;;;21.20;;
20497;SDS011;10407;53.238;10.448;2023-08-24T07:09:41;121.87;;;22.57;;
20497;SDS011;10407;53.238;10.448;2023-08-24T07:12:09;127.80;;;21.57;;
20497;SDS011;10407;53.238;10.448;2023-08-24T07:14:36;120.40;;;22.10;;
20497;SDS011;10407;53.238;10.448;2023-08-24T07:17:05;128.53;;;21.50;;
20497;SDS011;10407;53.238;10.448;2023-08-24T07:19:33;124.17;;;22.80;;
20497;SDS011;10407;53.238;10.448;2023-08-24T07:22:00;122.87;;;22.33;;
20497;SDS011;10407;53.238;10.448;2023-08-24T07:24:28;121.97;;;20.57;;
20497;SDS011;10407;53.238;10.448;2023-08-24T07:26:56;117.47;;;20.17;;
20497;SDS011;10407;53.238;10.448;2023-08-24T07:29:24;121.97;;;23.77;;
20497;SDS011;10407;53.238;10.448;2023-08-24T07:31:52;130.30;;;21.17;;
20497;SDS011;10407;53.238;10.448;2023-08-24T07:34:19;122.60;;;19.77;;
20497;SDS011;10407;53.238;10.448;2023-08-24T07:36:48;121.30;;;22.23;;
20497;SDS011;10407;53.238;10.448;2023-08-24T07:39:16;122.40;;;24.20;;
20497;SDS011;10407;53.238;10.448;2023-08-24T07:41:44;126.13;;;25.57;;
20497;SDS011;10407;53.238;10.448;2023-08-24T07:44:12;120.57;;;24.20;;
20497;SDS011;10407;53.238;10.448;2023-08-24T07:46:40;128.40;;;24.30;;
20497;SDS011;10407;53.238;10.448;2023-08-24T07:49:07;131.27;;;25.27;;
20497;SDS011;10407;53.238;10.448;2023-08-24T07:51:35;130.50;;;25.77;;
20497;SDS011;10407;53.238;10.448;2023-08-24T07:54:03;123.93;;;24.10;;
20497;SDS011;10407;53.238;10.448;2023-08-24T07:56:32;122.87;;;25.77;;
20497;SDS011;10407;53.238;10.448;2023-08-24T07:59:00;124.37;;;28.00;;
20497;SDS011;10407;53.238;10.448;2023-08-24T08:01:27;124.70;;;27.03;;
20497;SDS011;10407;53.238;10.448;2023-08-24T08:03:56;121.97;;;24.30;;
20497;SDS011;10407;53.238;10.448;2023-08-24T08:06:23;123.10;;;26.57;;
20497;SDS011;10407;53.238;10.448;2023-08-24T08:08:52;129.33;;;29.10;;
20497;SDS011;10407;53.238;10.448;2023-08-24T08:11:20;121.27;;;26.50;;
20497;SDS011;10407;53.238;10.448;2023-08-24T08:13:47;121.63;;;24.83;;
20497;SDS011;10407;53.238;10.448;2023-08-24T08:16:15;124.50;;;28.23;;
20497;SDS011;10407;53.238;10.448;2023-08-24T08:18:42;122.70;;;28.70;;
20497;SDS011;10407;53.238;10.448;2023-08-24T08:21:14;124.40;;;30.40;;
20497;SDS011;10407;53.238;10.448;2023-08-24T08:23:47;122.60;;;28.57;;
20497;SDS011;10407;53.238;10.448;2023-08-24T08:26:15;122.50;;;27.70;;
20497;SDS011;10407;53.238;10.448;2023-08-24T08:28:43;123.40;;;28.40;;
20497;SDS011;10407;53.238;10.448;2023-08-24T08:31:10;124.60;;;26.57;;
20497;SDS011;10407;53.238;10.448;2023-08-24T08:33:38;127.90;;;29.73;;
20497;SDS011;10407;53.238;10.448;2023-08-24T08:36:05;124.07;;;28.07;;
20497;SDS011;10407;53.238;10.448;2023-08-24T08:38:33;123.20;;;29.10;;
20497;SDS011;10407;53.238;10.448;2023-08-24T08:41:03;123.27;;;29.67;;
20497;SDS011;10407;53.238;10.448;2023-08-24T08:43:31;124.83;;;28.87;;
20497;SDS011;10407;53.238;10.448;2023-08-24T08:45:59;122.80;;;26.27;;
20497;SDS011;10407;53.238;10.448;2023-08-24T08:48:28;122.77;;;28.70;;
20497;SDS011;10407;53.238;10.448;2023-08-24T08:50:57;122.60;;;28.00;;
20497;SDS011;10407;53.238;10.448;2023-08-24T08:53:27;127.03;;;30.47;;
20497;SDS011;10407;53.238;10.448;2023-08-24T08:55:55;121.27;;;27.30;;
20497;SDS011;10407;53.238;10.448;2023-08-24T08:58:24;126.07;;;28.77;;
20497;SDS011;10407;53.238;10.448;2023-08-24T09:00:54;123.07;;;29.10;;
20497;SDS011;10407;53.238;10.448;2023-08-24T09:03:22;122.13;;;28.87;;
20497;SDS011;10407;53.238;10.448;2023-08-24T09:05:49;122.77;;;30.23;;
20497;SDS011;10407;53.238;10.448;2023-08-24T09:08:17;125.00;;;30.80;;
20497;SDS011;10407;53.238;10.448;2023-08-24T09:10:45;129.10;;;28.17;;
20497;SDS011;10407;53.238;10.448;2023-08-24T09:13:13;121.70;;;28.80;;
20497;SDS011;10407;53.238;10.448;2023-08-24T09:15:40;124.37;;;27.33;;
20497;SDS011;10407;53.238;10.448;2023-08-24T09:18:08;123.20;;;29.10;;
20497;SDS011;10407;53.238;10.448;2023-08-24T09:20:36;126.83;;;30.07;;
20497;SDS011;10407;53.238;10.448;2023-08-24T09:23:03;122.20;;;26.20;;
20497;SDS011;10407;53.238;10.448;2023-08-24T09:25:31;125.47;;;29.20;;
20497;SDS011;10407;53.238;10.448;2023-08-24T09:28:02;125.60;;;30.37;;
20497;SDS011;10407;53.238;10.448;2023-08-24T09:30:30;121.33;;;28.00;;
20497;SDS011;10407;53.238;10.448;2023-08-24T09:33:02;124.07;;;28.40;;
20497;SDS011;10407;53.238;10.448;2023-08-24T09:35:34;125.93;;;30.17;;
20497;SDS011;10407;53.238;10.448;2023-08-24T09:40:51;126.53;;;27.87;;
20497;SDS011;10407;53.238;10.448;2023-08-24T09:43:20;124.87;;;26.03;;
20497;SDS011;10407;53.238;10.448;2023-08-24T09:45:49;125.70;;;30.70;;
20497;SDS011;10407;53.238;10.448;2023-08-24T09:48:19;130.40;;;28.33;;
20497;SDS011;10407;53.238;10.448;2023-08-24T09:50:48;124.70;;;28.67;;
20497;SDS011;10407;53.238;10.448;2023-08-24T09:53:18;125.20;;;30.37;;
20497;SDS011;10407;53.238;10.448;2023-08-24T09:55:52;140.13;;;38.80;;
20497;SDS011;10407;53.238;10.448;2023-08-24T09:58:24;144.17;;;38.57;;
20497;SDS011;10407;53.238;10.448;2023-08-24T10:00:52;131.30;;;32.30;;
20497;SDS011;10407;53.238;10.448;2023-08-24T10:03:21;127.00;;;28.93;;
20497;SDS011;10407;53.238;10.448;2023-08-24T10:05:53;127.67;;;30.80;;
20497;SDS011;10407;53.238;10.448;2023-08-24T10:08:34;125.40;;;29.80;;
20497;SDS011;10407;53.238;10.448;2023-08-24T10:11:05;122.77;;;28.63;;
20497;SDS011;10407;53.238;10.448;2023-08-24T10:14:10;121.73;;;28.53;;
20497;SDS011;10407;53.238;10.448;2023-08-24T10:16:13;127.90;;;30.93;;
20497;SDS011;10407;53.238;10.448;2023-08-24T10:18:44;125.20;;;30.50;;
20497;SDS011;10407;53.238;10.448;2023-08-24T10:21:12;124.67;;;29.20;;
20497;SDS011;10407;53.238;10.448;2023-08-24T10:23:41;120.47;;;25.00;;
20497;SDS011;10407;53.238;10.448;2023-08-24T10:26:10;124.50;;;28.27;;
20497;SDS011;10407;53.238;10.448;2023-08-24T10:28:38;122.97;;;28.20;;
20497;SDS011;10407;53.238;10.448;2023-08-24T10:31:07;121.73;;;27.20;;
20497;SDS011;10407;53.238;10.448;2023-08-24T10:33:35;123.90;;;29.37;;
20497;SDS011;10407;53.238;10.448;2023-08-24T10:36:06;122.07;;;27.63;;
20497;SDS011;10407;53.238;10.448;2023-08-24T10:38:35;124.20;;;26.60;;
20497;SDS011;10407;53.238;10.448;2023-08-24T10:41:04;127.47;;;29.53;;
20497;SDS011;10407;53.238;10.448;2023-08-24T10:43:37;122.20;;;26.10;;
20497;SDS011;10407;53.238;10.448;2023-08-24T10:46:13;127.77;;;27.47;;
20497;SDS011;10407;53.238;10.448;2023-08-24T10:53:46;123.17;;;27.77;;
20497;SDS011;10407;53.238;10.448;2023-08-24T10:56:16;122.17;;;28.10;;
20497;SDS011;10407;53.238;10.448;2023-08-24T10:58:44;123.97;;;28.47;;
20497;SDS011;10407;53.238;10.448;2023-08-24T11:01:19;122.20;;;25.27;;
20497;SDS011;10407;53.238;10.448;2023-08-24T11:03:56;124.03;;;27.30;;
20497;SDS011;10407;53.238;10.448;2023-08-24T11:06:24;147.83;;;40.07;;
20497;SDS011;10407;53.238;10.448;2023-08-24T11:09:06;124.60;;;30.07;;
20497;SDS011;10407;53.238;10.448;2023-08-24T11:11:42;122.90;;;25.80;;
20497;SDS011;10407;53.238;10.448;2023-08-24T11:14:26;122.70;;;28.27;;
20497;SDS011;10407;53.238;10.448;2023-08-24T11:16:59;125.90;;;26.57;;
20497;SDS011;10407;53.238;10.448;2023-08-24T11:19:28;134.67;;;28.37;;
20497;SDS011;10407;53.238;10.448;2023-08-24T11:21:57;123.97;;;28.53;;
20497;SDS011;10407;53.238;10.448;2023-08-24T11:24:25;121.73;;;25.53;;
20497;SDS011;10407;53.238;10.448;2023-08-24T11:26:54;121.43;;;25.30;;
20497;SDS011;10407;53.238;10.448;2023-08-24T11:29:22;123.00;;;28.47;;
20497;SDS011;10407;53.238;10.448;2023-08-24T11:31:51;123.37;;;28.17;;
20497;SDS011;10407;53.238;10.448;2023-08-24T11:34:19;122.43;;;27.10;;
20497;SDS011;10407;53.238;10.448;2023-08-24T11:36:47;121.37;;;26.50;;
20497;SDS011;10407;53.238;10.448;2023-08-24T11:39:19;125.90;;;26.63;;
20497;SDS011;10407;53.238;10.448;2023-08-24T11:42:00;121.67;;;28.40;;
20497;SDS011;10407;53.238;10.448;2023-08-24T11:44:46;121.67;;;25.00;;
20497;SDS011;10407;53.238;10.448;2023-08-24T11:47:14;122.00;;;26.90;;
20497;SDS011;10407;53.238;10.448;2023-08-24T11:49:42;121.87;;;27.97;;
20497;SDS011;10407;53.238;10.448;2023-08-24T11:52:10;121.37;;;26.63;;
20497;SDS011;10407;53.238;10.448;2023-08-24T11:54:39;121.50;;;27.47;;
20497;SDS011;10407;53.238;10.448;2023-08-24T11:57:08;125.67;;;28.30;;
20497;SDS011;10407;53.238;10.448;2023-08-24T11:59:36;120.97;;;25.57;;
20497;SDS011;10407;53.238;10.448;2023-08-24T12:02:05;124.33;;;25.57;;
20497;SDS011;10407;53.238;10.448;2023-08-24T12:04:38;124.63;;;26.60;;
20497;SDS011;10407;53.238;10.448;2023-08-24T12:07:10;121.00;;;26.17;;
20497;SDS011;10407;53.238;10.448;2023-08-24T12:09:39;123.40;;;28.80;;
20497;SDS011;10407;53.238;10.448;2023-08-24T12:12:14;122.47;;;27.17;;
20497;SDS011;10407;53.238;10.448;2023-08-24T12:14:47;138.80;;;34.63;;
20497;SDS011;10407;53.238;10.448;2023-08-24T12:17:12;126.97;;;28.13;;
20497;SDS011;10407;53.238;10.448;2023-08-24T12:19:44;123.17;;;27.13;;
20497;SDS011;10407;53.238;10.448;2023-08-24T12:22:15;122.33;;;25.73;;
20497;SDS011;10407;53.238;10.448;2023-08-24T12:24:43;124.70;;;27.87;;
20497;SDS011;10407;53.238;10.448;2023-08-24T12:27:26;124.10;;;28.40;;
20497;SDS011;10407;53.238;10.448;2023-08-24T12:29:51;121.80;;;26.00;;
20497;SDS011;10407;53.238;10.448;2023-08-24T12:32:19;124.90;;;28.50;;
20497;SDS011;10407;53.238;10.448;2023-08-24T12:34:52;137.87;;;33.17;;
20497;SDS011;10407;53.238;10.448;2023-08-24T12:37:21;122.37;;;29.40;;
20497;SDS011;10407;53.238;10.448;2023-08-24T12:39:49;122.93;;;28.10;;
20497;SDS011;10407;53.238;10.448;2023-08-24T12:42:16;127.53;;;31.47;;
20497;SDS011;10407;53.238;10.448;2023-08-24T12:44:44;126.10;;;27.80;;
20497;SDS011;10407;53.238;10.448;2023-08-24T12:47:11;121.20;;;26.47;;
20497;SDS011;10407;53.238;10.448;2023-08-24T12:49:39;121.93;;;27.13;;
20497;SDS011;10407;53.238;10.448;2023-08-24T12:52:06;122.30;;;28.63;;
20497;SDS011;10407;53.238;10.448;2023-08-24T12:54:34;125.47;;;26.13;;
20497;SDS011;10407;53.238;10.448;2023-08-24T12:57:02;122.27;;;25.27;;
20497;SDS011;10407;53.238;10.448;2023-08-24T12:59:30;133.53;;;28.30;;
20497;SDS011;10407;53.238;10.448;2023-08-24T13:01:57;123.10;;;26.77;;
20497;SDS011;10407;53.238;10.448;2023-08-24T13:04:25;125.30;;;28.47;;
20497;SDS011;10407;53.238;10.448;2023-08-24T13:06:54;121.60;;;26.27;;
20497;SDS011;10407;53.238;10.448;2023-08-24T13:09:22;122.67;;;26.27;;
20497;SDS011;10407;53.238;10.448;2023-08-24T13:11:50;123.37;;;27.10;;
20497;SDS011;10407;53.238;10.448;2023-08-24T13:14:17;120.37;;;24.80;;
20497;SDS011;10407;53.238;10.448;2023-08-24T13:16:45;123.40;;;25.70;;
20497;SDS011;10407;53.238;10.448;2023-08-24T13:19:14;123.00;;;24.73;;
20497;SDS011;10407;53.238;10.448;2023-08-24T13:21:41;124.43;;;26.60;;
20497;SDS011;10407;53.238;10.448;2023-08-24T13:24:09;126.00;;;26.37;;
20497;SDS011;10407;53.238;10.448;2023-08-24T13:26:37;120.43;;;24.37;;
20497;SDS011;10407;53.238;10.448;2023-08-24T13:29:04;122.13;;;26.43;;
20497;SDS011;10407;53.238;10.448;2023-08-24T13:31:32;125.57;;;26.57;;
20497;SDS011;10407;53.238;10.448;2023-08-24T13:34:00;120.20;;;24.37;;
20497;SDS011;10407;53.238;10.448;2023-08-24T13:36:30;121.10;;;25.07;;
20497;SDS011;10407;53.238;10.448;2023-08-24T13:38:57;123.50;;;27.30;;
20497;SDS011;10407;53.238;10.448;2023-08-24T13:41:25;123.57;;;25.20;;
20497;SDS011;10407;53.238;10.448;2023-08-24T13:43:52;119.67;;;23.50;;
20497;SDS011;10407;53.238;10.448;2023-08-24T13:46:20;121.07;;;26.97;;
20497;SDS011;10407;53.238;10.448;2023-08-24T13:48:47;120.57;;;26.37;;
20497;SDS011;10407;53.238;10.448;2023-08-24T13:51:15;132.40;;;23.90;;
20497;SDS011;10407;53.238;10.448;2023-08-24T13:53:42;120.07;;;24.83;;
20497;SDS011;10407;53.238;10.448;2023-08-24T13:56:10;121.73;;;25.00;;
20497;SDS011;10407;53.238;10.448;2023-08-24T13:58:37;121.77;;;26.50;;
20497;SDS011;10407;53.238;10.448;2023-08-24T14:01:08;127.20;;;25.57;;
20497;SDS011;10407;53.238;10.448;2023-08-24T14:06:58;122.10;;;27.30;;
20497;SDS011;10407;53.238;10.448;2023-08-24T14:09:26;124.27;;;26.33;;
20497;SDS011;10407;53.238;10.448;2023-08-24T14:11:54;122.57;;;26.37;;
20497;SDS011;10407;53.238;10.448;2023-08-24T14:14:21;120.97;;;25.00;;
20497;SDS011;10407;53.238;10.448;2023-08-24T14:16:53;121.20;;;26.00;;
20497;SDS011;10407;53.238;10.448;2023-08-24T14:19:21;122.97;;;28.77;;
20497;SDS011;10407;53.238;10.448;2023-08-24T14:21:50;124.27;;;27.13;;
20497;SDS011;10407;53.238;10.448;2023-08-24T14:24:18;122.23;;;26.53;;
20497;SDS011;10407;53.238;10.448;2023-08-24T14:26:45;130.87;;;27.57;;
20497;SDS011;10407;53.238;10.448;2023-08-24T14:29:13;122.10;;;27.60;;
20497;SDS011;10407;53.238;10.448;2023-08-24T14:31:41;121.57;;;26.03;;